RJSC/GAJ METAR and TAF weather

Enter ICAO airport designator
Station Type Date Time Source
RJSC METAR 2020/12/06 01:40 UTC NOAA

RJSC 060140Z VRB01KT 1500 R01/1000VP2000N BCFG BR FEW000 BKN001 BKN002 03/03 Q1025 RMK 1ST000 5ST001 7ST002 A3028


Station Type Date Time Source
RJSC Decoded METAR 2020/12/06 01:40 UTC NOAA

Yamagata Airport, Japan (RJSC) 38-25N 140-22E 108M
Dec 05, 2020 - 08:40 PM EST / 2020.12.06 0140 UTC
Wind: Variable at 1 MPH (1 KT):0
Visibility: less than 1 mile:0
Sky conditions: mostly cloudy
Weather: patches of fog; mist
Temperature: 37 F (3 C)
Dew Point: 37 F (3 C)
Relative Humidity: 100%
Pressure (altimeter): 30.27 in. Hg (1025 hPa)
ob: RJSC 060140Z VRB01KT 1500 R01/1000VP2000N BCFG BR FEW000 BKN001 BKN002 03/03 Q1025 RMK 1ST000 5ST001 7ST002 A3028
cycle: 1

Station Type Date Time Source
RJSC TAF UTC NOAA

Error!

Example: see airport list